Bei Facebook empfehlenBei Twitter postenGoogle plusPinterest

Das Wetter im Erzgebirge am 25.07.2017

Wetter und Klima am 25.07.2017 Holzhau im Erzgebirge (630m ü.NN)
Letzte gemessene Temperatur und Uhrzeit der Messung23:45:00 Uhr11.60 °C
Temperatur (Maximum / Höchstwert) und Uhrzeit der Messung15:45:00 Uhr18.40 °C
Temperatur (Minimum / Tiefstwert) und Uhrzeit der Messung07:15:0010.90 °C
Errechneter Absolutwert der Temperaturschwankungen zwischen Tmin und Tmax des Tages7.50 K
Errechnete Tagesmitteltemperatur12.77708 °C
Gesamt - Niederschlag des Tages (in flüssiger Form)0.52 Liter / m²
Luftdruck (Maximum / Höchstwert) und Zeitpunkt der Messung00:30:00 Uhr1003.70 hPa
Luftdruck (Minimum / Tiefstwert) und Zeitpunkt der Messung23:45:00 Uhr999.40 hPa
Errechneter Absolutwert der Luftdruckschwankungen des Tages4.30 hPa
Höchste gemessene Windgeschwindigkeit und Uhrzeit der Messung10:45:00 Uhr36.36 km/h
Errechnete Windhäufigkeit in Relation zu den Messwerten des Tages12.50000 %
Niedrigste Windkühle (Windchill) und Zeitpunkt der Messung00:00:00 Uhr10.60 °C
Taupunkt (Maximum / Höchstwert) und Uhrzeit der Messung12:45:00 Uhr13.30 °C
Taupunkt (Minimum / Tiefstwert) und Uhrzeit der Messung07:15:009.50 °C
Anzahl der automatisch eingelesenen Messwerte 96

Detaillierte Wetter- und Klima- Messwerte für den 25.07.2017 in Holzhau im Erzgebirge (630m ü.NN)
ZeitTemperaturLuftdruckRel. LuftfeuchteWindWindrichtungWindchillTaupunktNiederschlag l/m²
23:45:0011.60 °C999.40 hPa90.00 %10.00 °C0.52
23:30:0011.60 °C999.60 hPa90.00 %10.00 °C0.52
23:15:0011.60 °C999.50 hPa90.00 %10.00 °C0.52
23:00:0011.60 °C999.60 hPa90.00 %10.00 °C0.52
22:45:0011.60 °C999.50 hPa90.00 %10.00 °C0.52
22:30:0011.60 °C999.60 hPa90.00 %10.00 °C0.52
22:15:0011.60 °C999.80 hPa90.00 %10.00 °C0.52
22:00:0011.50 °C999.80 hPa90.00 %9.90 °C0.52
21:45:0011.50 °C999.90 hPa90.00 %9.90 °C0.52
21:30:0011.40 °C999.80 hPa90.00 %9.80 °C0.52
21:15:0011.40 °C1000.30 hPa90.00 %9.80 °C0.52
21:00:0011.40 °C1000.00 hPa90.00 %9.80 °C0.52
20:45:0011.40 °C1000.00 hPa90.00 %9.80 °C0.52
20:30:0011.40 °C1000.00 hPa90.00 %9.80 °C0.52
20:15:0011.50 °C1000.00 hPa89.00 %9.80 °C0.52
20:00:0011.60 °C999.90 hPa89.00 %9.90 °C0.52
19:45:0011.60 °C999.90 hPa88.00 %9.70 °C0.52
19:30:0011.80 °C999.90 hPa87.00 %9.70 °C0.52
19:15:0012.10 °C999.90 hPa86.00 %9.80 °C0.52
19:00:0012.20 °C1000.00 hPa86.00 %9.90 °C 
18:45:0012.30 °C999.90 hPa85.00 %9.90 °C 
18:30:0012.50 °C1000.10 hPa84.00 %9.90 °C 
18:15:0012.90 °C1000.00 hPa82.00 %9.90 °C 
18:00:0013.40 °C1000.00 hPa79.00 %9.80 °C 
17:45:0014.10 °C1000.10 hPa76.00 %9.90 °C 
17:30:0015.20 °C1000.30 hPa71.00 %10.00 °C 
17:15:0016.40 °C1000.10 hPa67.00 %10.30 °C 
17:00:0017.30 °C1000.00 hPa65.00 %10.70 °C 
16:45:0017.60 °C1000.00 hPa66.00 %18.00 km/hNNW18.40 °C11.20 °C 
16:30:0017.30 °C1000.10 hPa66.00 %10.90 °C 
16:15:0017.10 °C1000.10 hPa66.00 %20.88 km/hNW17.70 °C10.70 °C 
16:00:0018.10 °C1000.20 hPa66.00 %11.70 °C 
15:45:0018.40 °C1000.10 hPa66.00 %25.92 km/hSW19.00 °C11.90 °C 
15:30:0017.80 °C1000.30 hPa70.00 %12.30 °C 
15:15:0016.80 °C1000.20 hPa71.00 %11.50 °C 
15:00:0016.10 °C1000.40 hPa72.00 %11.10 °C 
14:45:0015.90 °C1000.30 hPa73.00 %11.10 °C 
14:30:0015.80 °C1000.40 hPa73.00 %11.00 °C 
14:15:0016.80 °C1000.30 hPa70.00 %6.48 km/hSW16.80 °C11.30 °C 
14:00:0017.10 °C1000.30 hPa71.00 %11.80 °C 
13:45:0017.10 °C1000.40 hPa69.00 %11.40 °C 
13:30:0017.10 °C1000.20 hPa70.00 %11.60 °C 
13:15:0017.30 °C1000.20 hPa73.00 %12.40 °C 
13:00:0017.40 °C1000.20 hPa75.00 %12.90 °C 
12:45:0016.80 °C1000.00 hPa80.00 %13.30 °C 
12:30:0015.00 °C1000.50 hPa88.00 %13.00 °C 
12:15:0012.90 °C1000.70 hPa90.00 %11.30 °C 
12:00:0012.40 °C1000.60 hPa90.00 %10.80 °C 
11:45:0012.00 °C1000.50 hPa90.00 %10.40 °C 
11:30:0011.90 °C1000.60 hPa90.00 %10.30 °C 
11:15:0011.90 °C1000.60 hPa89.00 %10.10 °C 
11:00:0012.10 °C1000.60 hPa88.00 %10.20 °C 
10:45:0012.20 °C1000.70 hPa87.00 %36.36 km/hSSW11.20 °C10.10 °C 
10:30:0012.30 °C1000.80 hPa86.00 %10.00 °C 
10:15:0012.30 °C1000.90 hPa86.00 %10.00 °C 
10:00:0012.30 °C1000.90 hPa86.00 %10.00 °C 
09:45:0012.50 °C1000.70 hPa86.00 %10.20 °C 
09:30:0012.30 °C1000.80 hPa86.00 %10.00 °C 
09:15:0012.30 °C1001.00 hPa87.00 %3.96 km/hWSW12.30 °C10.20 °C 
09:00:0012.10 °C1000.80 hPa87.00 %10.00 °C 
08:45:0012.10 °C1000.90 hPa87.00 %10.00 °C 
08:30:0012.10 °C1000.70 hPa89.00 %10.30 °C 
08:15:0011.80 °C1000.90 hPa89.00 %12.96 km/hW11.80 °C10.00 °C 
08:00:0011.80 °C1001.00 hPa90.00 %10.20 °C 
07:45:0011.40 °C1000.90 hPa91.00 %3.96 km/hWSW11.40 °C10.00 °C 
07:30:0011.10 °C1001.10 hPa91.00 %9.70 °C 
07:15:0010.90 °C1001.00 hPa91.00 %9.50 °C 
07:00:0010.90 °C1001.00 hPa91.00 %9.50 °C 
06:45:0010.90 °C1001.20 hPa92.00 %9.70 °C 
06:30:0010.90 °C1001.30 hPa92.00 %9.70 °C 
06:15:0010.90 °C1001.40 hPa92.00 %9.70 °C 
06:00:0010.90 °C1001.40 hPa92.00 %9.70 °C 
05:45:0010.90 °C1001.50 hPa92.00 %9.70 °C 
05:30:0010.90 °C1001.60 hPa91.00 %9.50 °C 
05:15:0010.90 °C1001.50 hPa91.00 %9.50 °C 
05:00:0011.00 °C1001.80 hPa91.00 %9.60 °C 
04:45:0011.00 °C1002.00 hPa91.00 %9.60 °C 
04:30:0011.10 °C1002.00 hPa91.00 %7.92 km/hSW11.10 °C9.70 °C 
04:15:0011.10 °C1002.10 hPa91.00 %9.70 °C 
04:00:0011.10 °C1002.10 hPa91.00 %9.70 °C 
03:45:0011.10 °C1002.10 hPa91.00 %9.70 °C 
03:30:0011.10 °C1002.20 hPa92.00 %9.90 °C 
03:15:0011.10 °C1002.50 hPa92.00 %7.92 km/hWSW11.10 °C9.90 °C 
03:00:0011.10 °C1002.50 hPa92.00 %7.92 km/hWSW11.10 °C9.90 °C 
02:45:0011.10 °C1002.60 hPa92.00 %9.90 °C 
02:30:0011.00 °C1002.80 hPa92.00 %9.80 °C 
02:15:0011.00 °C1003.00 hPa92.00 %9.80 °C 
02:00:0011.10 °C1003.00 hPa92.00 %9.90 °C 
01:45:0011.20 °C1003.20 hPa92.00 %9.90 °C 
01:30:0011.20 °C1003.30 hPa92.00 %9.90 °C 
01:15:0011.30 °C1003.40 hPa92.00 %10.00 °C 
01:00:0011.30 °C1003.40 hPa92.00 %10.00 °C 
00:45:0011.50 °C1003.50 hPa92.00 %10.20 °C 
00:30:0011.50 °C1003.70 hPa92.00 %10.20 °C 
00:15:0011.60 °C1003.70 hPa92.00 %10.30 °C 
00:00:0011.60 °C1003.70 hPa92.00 %34.92 km/hSW10.60 °C10.30 °C 

Permanenter Link zu dieser Seite: Wetter im Erzgebirge am 25.07.2017
Performance-Info: Die Erstellung der Seite / Statistik(en) / Tabelle(n) erforderte 5 Datenbankserver-Abfrage(n) und dauerte 95 Millisekunden. (Dieser Messwert ist von der Gesamt-Auslastung des Servers abhängig.)
Erzgebirge - Wetter | Erzgebirge - Wetter (Mobilgeräte) | Komplette Klimadatenbank